sensor_id;sensor_type;location;lat;lon;timestamp;pressure;altitude;pressure_sealevel;temperature;humidity
28310;BME280;15571;50.974;13.936;2023-04-08T00:00:56;100426.28;;;5.82;100.00
28310;BME280;15571;50.974;13.936;2023-04-08T00:04:07;100432.38;;;5.82;100.00
28310;BME280;15571;50.974;13.936;2023-04-08T00:07:11;100435.00;;;5.84;100.00
28310;BME280;15571;50.974;13.936;2023-04-08T00:10:13;100435.00;;;5.85;100.00
28310;BME280;15571;50.974;13.936;2023-04-08T00:13:19;100435.00;;;5.84;100.00
28310;BME280;15571;50.974;13.936;2023-04-08T00:16:27;100431.56;;;5.85;100.00
28310;BME280;15571;50.974;13.936;2023-04-08T00:19:30;100427.19;;;5.84;100.00
28310;BME280;15571;50.974;13.936;2023-04-08T00:22:35;100423.75;;;5.85;100.00
28310;BME280;15571;50.974;13.936;2023-04-08T00:25:37;100422.84;;;5.83;100.00
28310;BME280;15571;50.974;13.936;2023-04-08T00:28:40;100426.22;;;5.79;100.00
28310;BME280;15571;50.974;13.936;2023-04-08T00:31:50;100426.22;;;5.79;100.00
28310;BME280;15571;50.974;13.936;2023-04-08T00:34:53;100434.91;;;5.78;100.00
28310;BME280;15571;50.974;13.936;2023-04-08T00:37:59;100419.25;;;5.74;100.00
28310;BME280;15571;50.974;13.936;2023-04-08T00:41:12;100429.72;;;5.78;100.00
28310;BME280;15571;50.974;13.936;2023-04-08T00:44:19;100427.94;;;5.76;100.00
28310;BME280;15571;50.974;13.936;2023-04-08T00:47:23;100427.06;;;5.76;100.00
28310;BME280;15571;50.974;13.936;2023-04-08T00:50:29;100424.44;;;5.73;100.00
28310;BME280;15571;50.974;13.936;2023-04-08T00:53:33;100425.28;;;5.73;100.00
28310;BME280;15571;50.974;13.936;2023-04-08T00:56:40;100423.56;;;5.74;100.00
28310;BME280;15571;50.974;13.936;2023-04-08T00:59:46;100425.28;;;5.73;100.00
28310;BME280;15571;50.974;13.936;2023-04-08T01:02:53;100433.94;;;5.74;100.00
28310;BME280;15571;50.974;13.936;2023-04-08T01:06:00;100430.50;;;5.75;100.00
28310;BME280;15571;50.974;13.936;2023-04-08T01:09:09;100421.84;;;5.74;100.00
28310;BME280;15571;50.974;13.936;2023-04-08T01:12:16;100423.53;;;5.71;100.00
28310;BME280;15571;50.974;13.936;2023-04-08T01:15:27;100423.47;;;5.69;100.00
28310;BME280;15571;50.974;13.936;2023-04-08T01:18:31;100425.22;;;5.70;100.00
28310;BME280;15571;50.974;13.936;2023-04-08T01:21:34;100421.78;;;5.70;100.00
28310;BME280;15571;50.974;13.936;2023-04-08T01:24:38;100423.47;;;5.68;100.00
28310;BME280;15571;50.974;13.936;2023-04-08T01:27:47;100421.69;;;5.65;100.00
28310;BME280;15571;50.974;13.936;2023-04-08T01:30:51;100419.94;;;5.66;100.00
28310;BME280;15571;50.974;13.936;2023-04-08T01:33:59;100417.34;;;5.66;100.00
28310;BME280;15571;50.974;13.936;2023-04-08T01:37:07;100415.66;;;5.66;100.00
28310;BME280;15571;50.974;13.936;2023-04-08T01:40:11;100408.69;;;5.65;100.00
28310;BME280;15571;50.974;13.936;2023-04-08T01:43:15;100407.84;;;5.66;100.00
28310;BME280;15571;50.974;13.936;2023-04-08T01:46:18;100419.13;;;5.68;100.00
28310;BME280;15571;50.974;13.936;2023-04-08T01:49:28;100420.88;;;5.69;100.00
28310;BME280;15571;50.974;13.936;2023-04-08T01:52:34;100427.78;;;5.67;100.00
28310;BME280;15571;50.974;13.936;2023-04-08T01:55:44;100427.81;;;5.70;100.00
28310;BME280;15571;50.974;13.936;2023-04-08T01:58:52;100428.56;;;5.61;100.00
28310;BME280;15571;50.974;13.936;2023-04-08T02:01:56;100434.63;;;5.64;100.00
28310;BME280;15571;50.974;13.936;2023-04-08T02:05:03;100438.97;;;5.65;100.00
28310;BME280;15571;50.974;13.936;2023-04-08T02:08:10;100422.59;;;5.67;100.00
28310;BME280;15571;50.974;13.936;2023-04-08T02:11:12;100427.81;;;5.69;100.00
28310;BME280;15571;50.974;13.936;2023-04-08T02:14:17;100429.56;;;5.71;100.00
28310;BME280;15571;50.974;13.936;2023-04-08T02:17:22;100427.88;;;5.73;100.00
28310;BME280;15571;50.974;13.936;2023-04-08T02:20:30;100431.34;;;5.72;100.00
28310;BME280;15571;50.974;13.936;2023-04-08T02:23:36;100427.03;;;5.74;100.00
28310;BME280;15571;50.974;13.936;2023-04-08T02:26:39;100418.41;;;5.75;100.00
28310;BME280;15571;50.974;13.936;2023-04-08T02:29:46;100414.97;;;5.78;100.00
28310;BME280;15571;50.974;13.936;2023-04-08T02:32:53;100418.44;;;5.79;100.00
28310;BME280;15571;50.974;13.936;2023-04-08T02:35:58;100427.97;;;5.80;100.00
28310;BME280;15571;50.974;13.936;2023-04-08T02:39:02;100436.63;;;5.79;100.00
28310;BME280;15571;50.974;13.936;2023-04-08T02:42:10;100433.16;;;5.76;100.00
28310;BME280;15571;50.974;13.936;2023-04-08T02:45:16;100434.91;;;5.79;100.00
28310;BME280;15571;50.974;13.936;2023-04-08T02:48:21;100434.06;;;5.80;100.00
28310;BME280;15571;50.974;13.936;2023-04-08T02:51:23;100437.50;;;5.78;100.00
28310;BME280;15571;50.974;13.936;2023-04-08T02:54:28;100446.16;;;5.78;100.00
28310;BME280;15571;50.974;13.936;2023-04-08T02:57:31;100441.81;;;5.77;100.00
28310;BME280;15571;50.974;13.936;2023-04-08T03:00:35;100443.53;;;5.76;100.00
28310;BME280;15571;50.974;13.936;2023-04-08T03:03:42;100447.84;;;5.76;100.00
28310;BME280;15571;50.974;13.936;2023-04-08T03:06:48;100442.69;;;5.78;100.00
28310;BME280;15571;50.974;13.936;2023-04-08T03:09:56;100441.81;;;5.79;100.00
28310;BME280;15571;50.974;13.936;2023-04-08T03:12:58;100443.56;;;5.80;100.00
28310;BME280;15571;50.974;13.936;2023-04-08T03:16:03;100435.81;;;5.81;100.00
28310;BME280;15571;50.974;13.936;2023-04-08T03:19:09;100431.50;;;5.82;100.00
28310;BME280;15571;50.974;13.936;2023-04-08T03:22:16;100429.78;;;5.84;100.00
28310;BME280;15571;50.974;13.936;2023-04-08T03:25:19;100438.50;;;5.86;100.00
28310;BME280;15571;50.974;13.936;2023-04-08T03:28:26;100435.06;;;5.87;100.00
28310;BME280;15571;50.974;13.936;2023-04-08T03:31:32;100430.72;;;5.87;100.00
28310;BME280;15571;50.974;13.936;2023-04-08T03:34:38;100432.47;;;5.87;100.00
28310;BME280;15571;50.974;13.936;2023-04-08T03:37:42;100430.75;;;5.89;100.00
28310;BME280;15571;50.974;13.936;2023-04-08T03:40:44;100428.97;;;5.88;100.00
28310;BME280;15571;50.974;13.936;2023-04-08T03:43:50;100428.97;;;5.85;100.00
28310;BME280;15571;50.974;13.936;2023-04-08T03:46:55;100427.19;;;5.84;100.00
28310;BME280;15571;50.974;13.936;2023-04-08T03:49:58;100432.41;;;5.84;100.00
28310;BME280;15571;50.974;13.936;2023-04-08T03:53:06;100431.56;;;5.85;100.00
28310;BME280;15571;50.974;13.936;2023-04-08T03:56:12;100441.09;;;5.86;100.00
28310;BME280;15571;50.974;13.936;2023-04-08T03:59:27;100433.25;;;5.83;100.00
28310;BME280;15571;50.974;13.936;2023-04-08T04:02:30;100435.00;;;5.84;100.00
28310;BME280;15571;50.974;13.936;2023-04-08T04:05:38;100441.88;;;5.82;100.00
28310;BME280;15571;50.974;13.936;2023-04-08T04:08:41;100446.22;;;5.81;100.00
28310;BME280;15571;50.974;13.936;2023-04-08T04:11:47;100441.81;;;5.79;100.00
28310;BME280;15571;50.974;13.936;2023-04-08T04:14:51;100451.34;;;5.78;100.00
28310;BME280;15571;50.974;13.936;2023-04-08T04:18:00;100442.72;;;5.79;100.00
28310;BME280;15571;50.974;13.936;2023-04-08T04:21:08;100450.50;;;5.79;100.00
28310;BME280;15571;50.974;13.936;2023-04-08T04:24:14;100434.91;;;5.78;100.00
28310;BME280;15571;50.974;13.936;2023-04-08T04:27:19;100442.66;;;5.76;100.00
28310;BME280;15571;50.974;13.936;2023-04-08T04:30:24;100452.09;;;5.72;100.00
28310;BME280;15571;50.974;13.936;2023-04-08T04:33:28;100446.91;;;5.72;100.00
28310;BME280;15571;50.974;13.936;2023-04-08T04:36:32;100459.84;;;5.69;100.00
28310;BME280;15571;50.974;13.936;2023-04-08T04:39:35;100465.09;;;5.71;100.00
28310;BME280;15571;50.974;13.936;2023-04-08T04:42:39;100468.53;;;5.71;100.00
28310;BME280;15571;50.974;13.936;2023-04-08T04:45:45;100470.34;;;5.75;100.00
28310;BME280;15571;50.974;13.936;2023-04-08T04:48:51;100462.59;;;5.77;100.00
28310;BME280;15571;50.974;13.936;2023-04-08T04:51:58;100460.91;;;5.79;100.00
28310;BME280;15571;50.974;13.936;2023-04-08T04:55:01;100469.63;;;5.83;100.00
28310;BME280;15571;50.974;13.936;2023-04-08T04:58:05;100465.28;;;5.83;100.00
28310;BME280;15571;50.974;13.936;2023-04-08T05:01:13;100462.72;;;5.85;100.00
28310;BME280;15571;50.974;13.936;2023-04-08T05:04:17;100471.44;;;5.87;100.00
28310;BME280;15571;50.974;13.936;2023-04-08T05:07:20;100471.44;;;5.87;100.00
28310;BME280;15571;50.974;13.936;2023-04-08T05:10:22;100470.59;;;5.89;100.00
28310;BME280;15571;50.974;13.936;2023-04-08T05:13:26;100480.16;;;5.92;100.00
28310;BME280;15571;50.974;13.936;2023-04-08T05:16:33;100480.19;;;5.93;100.00
28310;BME280;15571;50.974;13.936;2023-04-08T05:19:39;100479.38;;;5.96;100.00
28310;BME280;15571;50.974;13.936;2023-04-08T05:22:41;100483.75;;;5.97;100.00
28310;BME280;15571;50.974;13.936;2023-04-08T05:25:48;100487.25;;;5.99;100.00
28310;BME280;15571;50.974;13.936;2023-04-08T05:28:51;100489.00;;;6.00;100.00
28310;BME280;15571;50.974;13.936;2023-04-08T05:31:54;100489.06;;;6.03;100.00
28310;BME280;15571;50.974;13.936;2023-04-08T05:35:00;100490.81;;;6.04;100.00
28310;BME280;15571;50.974;13.936;2023-04-08T05:38:14;100499.53;;;6.06;100.00
28310;BME280;15571;50.974;13.936;2023-04-08T05:41:29;100496.94;;;6.08;100.00
28310;BME280;15571;50.974;13.936;2023-04-08T05:44:32;100495.19;;;6.08;100.00
28310;BME280;15571;50.974;13.936;2023-04-08T05:47:37;100499.56;;;6.10;100.00
28310;BME280;15571;50.974;13.936;2023-04-08T05:50:47;100498.72;;;6.11;100.00
28310;BME280;15571;50.974;13.936;2023-04-08T05:53:51;100503.91;;;6.11;100.00
28310;BME280;15571;50.974;13.936;2023-04-08T05:56:56;100508.25;;;6.12;100.00
28310;BME280;15571;50.974;13.936;2023-04-08T06:00:06;100506.56;;;6.14;100.00
28310;BME280;15571;50.974;13.936;2023-04-08T06:03:11;100516.13;;;6.16;100.00
28310;BME280;15571;50.974;13.936;2023-04-08T06:06:23;100518.75;;;6.18;100.00
28310;BME280;15571;50.974;13.936;2023-04-08T06:09:33;100522.25;;;6.20;100.00
28310;BME280;15571;50.974;13.936;2023-04-08T06:12:43;100526.63;;;6.22;100.00
28310;BME280;15571;50.974;13.936;2023-04-08T06:15:46;100523.22;;;6.25;100.00
28310;BME280;15571;50.974;13.936;2023-04-08T06:18:52;100531.06;;;6.28;100.00
28310;BME280;15571;50.974;13.936;2023-04-08T06:21:57;100534.56;;;6.30;100.00
28310;BME280;15571;50.974;13.936;2023-04-08T06:24:59;100536.34;;;6.33;100.00
28310;BME280;15571;50.974;13.936;2023-04-08T06:28:04;100537.25;;;6.35;100.00
28310;BME280;15571;50.974;13.936;2023-04-08T06:31:10;100532.94;;;6.37;100.00
28310;BME280;15571;50.974;13.936;2023-04-08T06:34:16;100532.97;;;6.38;100.00
28310;BME280;15571;50.974;13.936;2023-04-08T06:37:21;100545.13;;;6.39;100.00
28310;BME280;15571;50.974;13.936;2023-04-08T06:40:26;100543.44;;;6.42;100.00
28310;BME280;15571;50.974;13.936;2023-04-08T06:43:54;100550.44;;;6.46;100.00
28310;BME280;15571;50.974;13.936;2023-04-08T06:46:56;100552.22;;;6.48;100.00
28310;BME280;15571;50.974;13.936;2023-04-08T06:50:01;100558.31;;;6.50;100.00
28310;BME280;15571;50.974;13.936;2023-04-08T06:53:05;100560.94;;;6.52;100.00
28310;BME280;15571;50.974;13.936;2023-04-08T06:56:32;100566.13;;;6.52;100.00
28310;BME280;15571;50.974;13.936;2023-04-08T06:59:39;100565.16;;;6.47;100.00
28310;BME280;15571;50.974;13.936;2023-04-08T07:02:43;100574.72;;;6.48;100.00
28310;BME280;15571;50.974;13.936;2023-04-08T07:05:47;100584.34;;;6.53;100.00
28310;BME280;15571;50.974;13.936;2023-04-08T07:08:56;100582.56;;;6.49;100.00
28310;BME280;15571;50.974;13.936;2023-04-08T07:12:02;100587.78;;;6.51;100.00
28310;BME280;15571;50.974;13.936;2023-04-08T07:15:05;100587.84;;;6.54;100.00
28310;BME280;15571;50.974;13.936;2023-04-08T07:18:10;100587.88;;;6.56;100.00
28310;BME280;15571;50.974;13.936;2023-04-08T07:21:13;100591.38;;;6.58;100.00
28310;BME280;15571;50.974;13.936;2023-04-08T07:24:20;100593.13;;;6.59;100.00
28310;BME280;15571;50.974;13.936;2023-04-08T07:27:27;100595.75;;;6.60;100.00
28310;BME280;15571;50.974;13.936;2023-04-08T07:30:34;100596.56;;;6.56;100.00
28310;BME280;15571;50.974;13.936;2023-04-08T07:33:41;100600.09;;;6.60;100.00
28310;BME280;15571;50.974;13.936;2023-04-08T07:36:45;100609.72;;;6.65;100.00
28310;BME280;15571;50.974;13.936;2023-04-08T07:39:50;100607.94;;;6.63;100.00
28310;BME280;15571;50.974;13.936;2023-04-08T07:42:53;100606.31;;;6.69;100.00
28310;BME280;15571;50.974;13.936;2023-04-08T07:46:01;100618.53;;;6.74;100.00
28310;BME280;15571;50.974;13.936;2023-04-08T07:49:10;100629.84;;;6.77;100.00
28310;BME280;15571;50.974;13.936;2023-04-08T07:52:14;100625.56;;;6.81;100.00
28310;BME280;15571;50.974;13.936;2023-04-08T07:55:23;100622.19;;;6.85;100.00
28310;BME280;15571;50.974;13.936;2023-04-08T07:58:30;100629.19;;;6.91;100.00
28310;BME280;15571;50.974;13.936;2023-04-08T08:01:33;100631.91;;;6.95;100.00
28310;BME280;15571;50.974;13.936;2023-04-08T08:04:39;100640.56;;;6.96;100.00
28310;BME280;15571;50.974;13.936;2023-04-08T08:07:42;100632.75;;;6.94;100.00
28310;BME280;15571;50.974;13.936;2023-04-08T08:10:50;100645.84;;;6.99;100.00
28310;BME280;15571;50.974;13.936;2023-04-08T08:13:56;100640.63;;;6.99;100.00
28310;BME280;15571;50.974;13.936;2023-04-08T08:17:04;100639.84;;;7.05;100.00
28310;BME280;15571;50.974;13.936;2023-04-08T08:20:17;100647.66;;;7.06;100.00
28310;BME280;15571;50.974;13.936;2023-04-08T08:23:23;100652.03;;;7.09;100.00
28310;BME280;15571;50.974;13.936;2023-04-08T08:26:33;100657.31;;;7.12;100.00
28310;BME280;15571;50.974;13.936;2023-04-08T08:29:35;100660.78;;;7.12;100.00
28310;BME280;15571;50.974;13.936;2023-04-08T08:32:39;100652.09;;;7.12;100.00
28310;BME280;15571;50.974;13.936;2023-04-08T08:35:43;100653.00;;;7.14;100.00
28310;BME280;15571;50.974;13.936;2023-04-08T08:38:51;100659.00;;;7.11;100.00
28310;BME280;15571;50.974;13.936;2023-04-08T08:41:57;100660.91;;;7.20;100.00
28310;BME280;15571;50.974;13.936;2023-04-08T08:45:00;100662.72;;;7.24;100.00
28310;BME280;15571;50.974;13.936;2023-04-08T08:48:05;100657.59;;;7.30;100.00
28310;BME280;15571;50.974;13.936;2023-04-08T08:51:07;100664.69;;;7.41;100.00
28310;BME280;15571;50.974;13.936;2023-04-08T08:54:10;100668.31;;;7.52;100.00
28310;BME280;15571;50.974;13.936;2023-04-08T08:57:17;100675.34;;;7.59;100.00
28310;BME280;15571;50.974;13.936;2023-04-08T09:00:31;100680.63;;;7.64;100.00
28310;BME280;15571;50.974;13.936;2023-04-08T09:03:38;100678.88;;;7.64;100.00
28310;BME280;15571;50.974;13.936;2023-04-08T09:06:41;100687.59;;;7.67;100.00
28310;BME280;15571;50.974;13.936;2023-04-08T09:09:48;100692.81;;;7.65;100.00
28310;BME280;15571;50.974;13.936;2023-04-08T09:12:58;100692.88;;;7.70;100.00
28310;BME280;15571;50.974;13.936;2023-04-08T09:16:02;100689.47;;;7.74;100.00
28310;BME280;15571;50.974;13.936;2023-04-08T09:19:07;100694.75;;;7.80;100.00
28310;BME280;15571;50.974;13.936;2023-04-08T09:22:12;100699.91;;;7.77;100.00
28310;BME280;15571;50.974;13.936;2023-04-08T09:25:22;100697.25;;;7.71;100.00
28310;BME280;15571;50.974;13.936;2023-04-08T09:28:27;100702.50;;;7.74;100.00
28310;BME280;15571;50.974;13.936;2023-04-08T14:20:00;100828.72;;;7.91;100.00
28310;BME280;15571;50.974;13.936;2023-04-08T14:23:07;100827.88;;;7.94;100.00
28310;BME280;15571;50.974;13.936;2023-04-08T14:26:10;100834.00;;;7.96;100.00
28310;BME280;15571;50.974;13.936;2023-04-08T14:29:15;100829.66;;;7.97;100.00
28310;BME280;15571;50.974;13.936;2023-04-08T14:32:23;100830.44;;;7.89;100.00
28310;BME280;15571;50.974;13.936;2023-04-08T14:35:28;100829.44;;;7.83;100.00
28310;BME280;15571;50.974;13.936;2023-04-08T14:46:43;100827.75;;;7.85;100.00
28310;BME280;15571;50.974;13.936;2023-04-08T16:20:58;100898.66;;;7.63;100.00
28310;BME280;15571;50.974;13.936;2023-04-08T16:24:06;100900.41;;;7.66;100.00
28310;BME280;15571;50.974;13.936;2023-04-08T16:27:16;100896.88;;;7.62;100.00
28310;BME280;15571;50.974;13.936;2023-04-08T16:30:23;100902.03;;;7.58;100.00
28310;BME280;15571;50.974;13.936;2023-04-08T16:33:25;100893.31;;;7.57;100.00
28310;BME280;15571;50.974;13.936;2023-04-08T16:36:32;100899.50;;;7.64;100.00
28310;BME280;15571;50.974;13.936;2023-04-08T16:39:36;100904.78;;;7.67;100.00
28310;BME280;15571;50.974;13.936;2023-04-08T16:42:42;100908.09;;;7.58;100.00
28310;BME280;15571;50.974;13.936;2023-04-08T16:45:49;100908.09;;;7.58;100.00
28310;BME280;15571;50.974;13.936;2023-04-08T16:48:54;100909.78;;;7.56;100.00
28310;BME280;15571;50.974;13.936;2023-04-08T16:52:02;100911.44;;;7.51;100.00
28310;BME280;15571;50.974;13.936;2023-04-08T16:55:08;100913.16;;;7.51;100.00
28310;BME280;15571;50.974;13.936;2023-04-08T16:58:13;100915.84;;;7.55;100.00
28310;BME280;15571;50.974;13.936;2023-04-08T17:01:17;100920.22;;;7.56;100.00
28310;BME280;15571;50.974;13.936;2023-04-08T17:04:21;100913.22;;;7.52;100.00
28310;BME280;15571;50.974;13.936;2023-04-08T17:07:27;100921.94;;;7.54;100.00
28310;BME280;15571;50.974;13.936;2023-04-08T17:10:34;100927.09;;;7.53;100.00
28310;BME280;15571;50.974;13.936;2023-04-08T17:13:41;100931.41;;;7.51;100.00
28310;BME280;15571;50.974;13.936;2023-04-08T17:16:50;100937.38;;;7.45;100.00
28310;BME280;15571;50.974;13.936;2023-04-08T17:19:56;100939.19;;;7.49;100.00
28310;BME280;15571;50.974;13.936;2023-04-08T17:23:02;100952.19;;;7.47;100.00
28310;BME280;15571;50.974;13.936;2023-04-08T17:26:05;100953.00;;;7.45;100.00
28310;BME280;15571;50.974;13.936;2023-04-08T17:29:09;100956.50;;;7.45;100.00
28310;BME280;15571;50.974;13.936;2023-04-08T17:32:11;100959.03;;;7.42;100.00
28310;BME280;15571;50.974;13.936;2023-04-08T17:35:13;100960.72;;;7.40;100.00
28310;BME280;15571;50.974;13.936;2023-04-08T17:38:22;100957.00;;;7.27;100.00
28310;BME280;15571;50.974;13.936;2023-04-08T17:41:25;100964.78;;;7.24;100.00
28310;BME280;15571;50.974;13.936;2023-04-08T17:44:30;100970.75;;;7.20;100.00
28310;BME280;15571;50.974;13.936;2023-04-08T17:47:35;100980.25;;;7.18;100.00
28310;BME280;15571;50.974;13.936;2023-04-08T17:50:42;100977.63;;;7.15;100.00
28310;BME280;15571;50.974;13.936;2023-04-08T17:53:48;100978.28;;;7.05;100.00
28310;BME280;15571;50.974;13.936;2023-04-08T17:56:50;100983.28;;;6.95;100.00
28310;BME280;15571;50.974;13.936;2023-04-08T17:59:59;100986.66;;;6.91;100.00
28310;BME280;15571;50.974;13.936;2023-04-08T18:03:09;100978.75;;;6.88;100.00
28310;BME280;15571;50.974;13.936;2023-04-08T18:06:21;100991.66;;;6.82;100.00
28310;BME280;15571;50.974;13.936;2023-04-08T18:09:24;100991.66;;;6.82;100.00
28310;BME280;15571;50.974;13.936;2023-04-08T18:12:27;101003.72;;;6.78;100.00
28310;BME280;15571;50.974;13.936;2023-04-08T18:15:34;101004.41;;;6.71;100.00
28310;BME280;15571;50.974;13.936;2023-04-08T18:18:38;101014.88;;;6.73;100.00
28310;BME280;15571;50.974;13.936;2023-04-08T18:21:42;101019.22;;;6.74;100.00
28310;BME280;15571;50.974;13.936;2023-04-08T18:24:50;101016.53;;;6.69;100.00
28310;BME280;15571;50.974;13.936;2023-04-08T18:27:58;101022.50;;;6.66;100.00
28310;BME280;15571;50.974;13.936;2023-04-08T18:31:04;101036.38;;;6.65;100.00
28310;BME280;15571;50.974;13.936;2023-04-08T18:34:08;101039.00;;;6.65;100.00
28310;BME280;15571;50.974;13.936;2023-04-08T18:37:17;101039.88;;;6.67;100.00
28310;BME280;15571;50.974;13.936;2023-04-08T18:40:24;101045.16;;;6.70;100.00
28310;BME280;15571;50.974;13.936;2023-04-08T18:43:28;101040.81;;;6.69;100.00
28310;BME280;15571;50.974;13.936;2023-04-08T18:46:31;101048.47;;;6.63;100.00
28310;BME280;15571;50.974;13.936;2023-04-08T18:49:37;101052.78;;;6.63;100.00
28310;BME280;15571;50.974;13.936;2023-04-08T18:52:40;101051.91;;;6.62;100.00
28310;BME280;15571;50.974;13.936;2023-04-08T18:55:45;101056.97;;;6.56;100.00
28310;BME280;15571;50.974;13.936;2023-04-08T18:58:51;101051.72;;;6.54;100.00
28310;BME280;15571;50.974;13.936;2023-04-08T19:01:57;101061.28;;;6.56;100.00
28310;BME280;15571;50.974;13.936;2023-04-08T19:05:01;101055.28;;;6.58;100.00
28310;BME280;15571;50.974;13.936;2023-04-08T19:08:09;101067.44;;;6.59;100.00
28310;BME280;15571;50.974;13.936;2023-04-08T19:11:12;101061.38;;;6.59;100.00
28310;BME280;15571;50.974;13.936;2023-04-08T19:14:18;101069.19;;;6.59;100.00
28310;BME280;15571;50.974;13.936;2023-04-08T19:17:21;101063.06;;;6.57;100.00
28310;BME280;15571;50.974;13.936;2023-04-08T19:20:28;101062.09;;;6.53;100.00
28310;BME280;15571;50.974;13.936;2023-04-08T19:23:32;101064.59;;;6.48;100.00
28310;BME280;15571;50.974;13.936;2023-04-08T19:26:38;101057.50;;;6.43;100.00
28310;BME280;15571;50.974;13.936;2023-04-08T19:29:40;101057.38;;;6.36;100.00
28310;BME280;15571;50.974;13.936;2023-04-08T19:32:43;101064.13;;;6.30;100.00
28310;BME280;15571;50.974;13.936;2023-04-08T19:35:47;101057.91;;;6.25;100.00
28310;BME280;15571;50.974;13.936;2023-04-08T19:38:55;101068.19;;;6.20;100.00
28310;BME280;15571;50.974;13.936;2023-04-08T19:42:02;101062.84;;;6.14;100.00
28310;BME280;15571;50.974;13.936;2023-04-08T19:45:06;101075.72;;;6.09;100.00
28310;BME280;15571;50.974;13.936;2023-04-08T19:48:10;101071.34;;;6.06;100.00
28310;BME280;15571;50.974;13.936;2023-04-08T19:51:14;101075.53;;;6.03;100.00
28310;BME280;15571;50.974;13.936;2023-04-08T19:54:22;101079.59;;;5.93;100.00
28310;BME280;15571;50.974;13.936;2023-04-08T19:57:33;101079.44;;;5.87;100.00
28310;BME280;15571;50.974;13.936;2023-04-08T20:00:38;101079.19;;;5.78;100.00
28310;BME280;15571;50.974;13.936;2023-04-08T20:03:51;101087.72;;;5.73;100.00
28310;BME280;15571;50.974;13.936;2023-04-08T20:06:53;101094.47;;;5.68;100.00
28310;BME280;15571;50.974;13.936;2023-04-08T20:09:55;101087.47;;;5.64;100.00
28310;BME280;15571;50.974;13.936;2023-04-08T20:13:02;101080.41;;;5.60;100.00
28310;BME280;15571;50.974;13.936;2023-04-08T20:16:05;101080.25;;;5.54;100.00
28310;BME280;15571;50.974;13.936;2023-04-08T20:19:17;101077.53;;;5.51;100.00
28310;BME280;15571;50.974;13.936;2023-04-08T20:22:20;101076.59;;;5.49;100.00
28310;BME280;15571;50.974;13.936;2023-04-08T20:25:23;101078.22;;;5.43;100.00
28310;BME280;15571;50.974;13.936;2023-04-08T20:28:29;101079.81;;;5.38;100.00
28310;BME280;15571;50.974;13.936;2023-04-08T20:31:32;101078.88;;;5.36;100.00
28310;BME280;15571;50.974;13.936;2023-04-08T20:34:38;101085.63;;;5.31;100.00
28310;BME280;15571;50.974;13.936;2023-04-08T20:37:42;101089.59;;;5.20;100.00
28310;BME280;15571;50.974;13.936;2023-04-08T20:40:47;101084.19;;;5.12;100.00
28310;BME280;15571;50.974;13.936;2023-04-08T20:44:00;101086.72;;;5.10;100.00
28310;BME280;15571;50.974;13.936;2023-04-08T20:47:11;101078.88;;;5.07;100.00
28310;BME280;15571;50.974;13.936;2023-04-08T20:50:15;101078.78;;;5.04;100.00
28310;BME280;15571;50.974;13.936;2023-04-08T20:53:22;101090.78;;;5.01;100.00
28310;BME280;15571;50.974;13.936;2023-04-08T20:56:30;101091.56;;;4.98;100.00
28310;BME280;15571;50.974;13.936;2023-04-08T20:59:35;101099.25;;;4.95;100.00
28310;BME280;15571;50.974;13.936;2023-04-08T21:02:37;101100.72;;;4.87;100.00
28310;BME280;15571;50.974;13.936;2023-04-08T21:05:39;101110.97;;;4.83;100.00
28310;BME280;15571;50.974;13.936;2023-04-08T21:08:47;101110.81;;;4.77;100.00
28310;BME280;15571;50.974;13.936;2023-04-08T21:11:52;101096.84;;;4.74;100.00
28310;BME280;15571;50.974;13.936;2023-04-08T21:14:58;101091.44;;;4.67;100.00
28310;BME280;15571;50.974;13.936;2023-04-08T21:18:02;101100.81;;;4.62;100.00
28310;BME280;15571;50.974;13.936;2023-04-08T21:21:08;101101.44;;;4.55;100.00
28310;BME280;15571;50.974;13.936;2023-04-08T21:24:12;101107.22;;;4.48;100.00
28310;BME280;15571;50.974;13.936;2023-04-08T21:27:16;101123.59;;;4.47;100.00
28310;BME280;15571;50.974;13.936;2023-04-08T21:30:28;101126.03;;;4.42;100.00
28310;BME280;15571;50.974;13.936;2023-04-08T21:33:33;101118.19;;;4.39;100.00
28310;BME280;15571;50.974;13.936;2023-04-08T21:36:35;101117.25;;;4.37;100.00
28310;BME280;15571;50.974;13.936;2023-04-08T21:39:38;101110.28;;;4.36;100.00
28310;BME280;15571;50.974;13.936;2023-04-08T21:42:44;101116.31;;;4.35;100.00
28310;BME280;15571;50.974;13.936;2023-04-08T21:45:51;101115.38;;;4.33;100.00
28310;BME280;15571;50.974;13.936;2023-04-08T21:48:54;101115.28;;;4.30;100.00
28310;BME280;15571;50.974;13.936;2023-04-08T21:52:00;101118.59;;;4.26;100.00
28310;BME280;15571;50.974;13.936;2023-04-08T21:55:02;101122.81;;;4.24;100.00
28310;BME280;15571;50.974;13.936;2023-04-08T21:58:07;101117.31;;;4.14;100.00
28310;BME280;15571;50.974;13.936;2023-04-08T22:01:13;101110.03;;;4.04;100.00
28310;BME280;15571;50.974;13.936;2023-04-08T22:04:18;101121.97;;;3.99;100.00
28310;BME280;15571;50.974;13.936;2023-04-08T22:07:24;101113.13;;;3.94;100.00
28310;BME280;15571;50.974;13.936;2023-04-08T22:10:27;101113.03;;;3.91;100.00
28310;BME280;15571;50.974;13.936;2023-04-08T22:13:29;101111.28;;;3.89;100.00
28310;BME280;15571;50.974;13.936;2023-04-08T22:16:34;101103.34;;;3.85;100.00
28310;BME280;15571;50.974;13.936;2023-04-08T22:19:38;101092.97;;;3.85;100.00
28310;BME280;15571;50.974;13.936;2023-04-08T22:22:44;101090.31;;;3.83;100.00
28310;BME280;15571;50.974;13.936;2023-04-08T22:25:47;101096.41;;;3.84;100.00